createdAt,value
2018-03-14T00:00:19.983Z,999.5
2018-03-14T00:01:22.413Z,999.5
2018-03-14T00:02:25.132Z,999.6
2018-03-14T00:03:27.578Z,999.6
2018-03-14T00:04:30.001Z,999.6
2018-03-14T00:05:32.432Z,999.6
2018-03-14T00:06:34.859Z,999.6
2018-03-14T00:07:37.291Z,999.6
2018-03-14T00:08:39.718Z,999.7
2018-03-14T00:09:42.452Z,999.6
2018-03-14T00:10:44.871Z,999.6
2018-03-14T00:11:47.642Z,999.7
2018-03-14T00:12:50.072Z,999.7
2018-03-14T00:13:52.507Z,999.7
2018-03-14T00:14:55.228Z,999.7
2018-03-14T00:15:57.648Z,999.7
2018-03-14T00:17:00.083Z,999.7
2018-03-14T00:18:02.832Z,999.7
2018-03-14T00:19:05.250Z,999.7
2018-03-14T00:20:07.684Z,999.7
2018-03-14T00:21:10.114Z,999.8
2018-03-14T00:22:12.557Z,999.8
2018-03-14T00:23:14.992Z,999.8
2018-03-14T00:24:17.725Z,999.8
2018-03-14T00:25:20.461Z,999.8
2018-03-14T00:26:22.883Z,999.8
2018-03-14T00:27:25.306Z,999.8
2018-03-14T00:28:27.730Z,999.8
2018-03-14T00:29:30.464Z,999.8
2018-03-14T00:30:32.897Z,999.8
2018-03-14T00:31:35.636Z,999.8
2018-03-14T00:32:38.070Z,999.8
2018-03-14T00:33:40.498Z,999.9
2018-03-14T00:34:42.930Z,999.8
2018-03-14T00:35:45.363Z,999.9
2018-03-14T00:36:47.791Z,999.9
2018-03-14T00:37:50.523Z,999.8
2018-03-14T00:38:52.964Z,999.9
2018-03-14T00:39:55.696Z,999.9
2018-03-14T00:40:58.135Z,999.8
2018-03-14T00:42:00.859Z,999.9
2018-03-14T00:43:03.582Z,999.9
2018-03-14T00:44:06.013Z,999.9
2018-03-14T00:45:08.437Z,999.9
2018-03-14T00:46:11.500Z,999.9
2018-03-14T00:47:13.935Z,999.9
2018-03-14T00:48:16.348Z,999.9
2018-03-14T00:49:18.785Z,999.9
2018-03-14T00:50:21.223Z,999.9
2018-03-14T00:51:23.953Z,1000
2018-03-14T00:52:26.382Z,999.9
2018-03-14T00:53:28.805Z,999.9
2018-03-14T00:54:31.249Z,1000
2018-03-14T00:55:33.658Z,1000
2018-03-14T00:56:36.083Z,1000
2018-03-14T00:57:38.509Z,1000
2018-03-14T00:58:40.931Z,1000
2018-03-14T00:59:43.696Z,1000
2018-03-14T01:00:46.122Z,1000
2018-03-14T01:01:48.873Z,1000
2018-03-14T01:02:51.311Z,1000
2018-03-14T01:03:53.742Z,1000
2018-03-14T01:04:56.164Z,1000
2018-03-14T01:05:58.888Z,1000
2018-03-14T01:07:01.311Z,1000
2018-03-14T01:08:04.037Z,1000
2018-03-14T01:09:06.462Z,1000
2018-03-14T01:10:10.042Z,1000
2018-03-14T01:11:12.786Z,1000
2018-03-14T01:12:15.216Z,1000
2018-03-14T01:13:17.642Z,1000
2018-03-14T01:14:20.055Z,1000
2018-03-14T01:15:22.492Z,1000
2018-03-14T01:16:24.923Z,1000
2018-03-14T01:17:27.354Z,1000
2018-03-14T01:18:29.783Z,1000.1
2018-03-14T01:19:32.534Z,1000.1
2018-03-14T01:20:35.369Z,1000
2018-03-14T01:21:37.813Z,1000.1
2018-03-14T01:22:40.232Z,1000.1
2018-03-14T01:23:42.970Z,1000.1
2018-03-14T01:24:45.397Z,1000.1
2018-03-14T01:25:47.834Z,1000.1
2018-03-14T01:26:50.257Z,1000.1
2018-03-14T01:27:52.684Z,1000.1
2018-03-14T01:28:55.120Z,1000.1
2018-03-14T01:29:57.542Z,1000.1
2018-03-14T01:30:59.964Z,1000.1
2018-03-14T01:32:02.718Z,1000.1
2018-03-14T01:33:05.149Z,1000.1
2018-03-14T01:34:07.573Z,1000.1
2018-03-14T01:35:10.009Z,1000.1
2018-03-14T01:36:12.422Z,1000.1
2018-03-14T01:37:14.849Z,1000.1
2018-03-14T01:38:17.587Z,1000.1
2018-03-14T01:39:20.657Z,1000.1
2018-03-14T01:40:23.088Z,1000.1
2018-03-14T01:41:25.822Z,1000.2
2018-03-14T01:42:28.257Z,1000.2
2018-03-14T01:43:31.420Z,1000.1
2018-03-14T01:44:33.847Z,1000.2
2018-03-14T01:45:36.262Z,1000.2
2018-03-14T01:46:38.696Z,1000.2
2018-03-14T01:47:41.130Z,1000.2
2018-03-14T01:48:43.876Z,1000.1
2018-03-14T01:49:46.306Z,1000.2
2018-03-14T01:50:49.389Z,1000.2
2018-03-14T01:51:51.821Z,1000.2
2018-03-14T01:52:54.254Z,1000.2
2018-03-14T01:53:56.685Z,1000.2
2018-03-14T01:54:59.108Z,1000.2
2018-03-14T01:56:01.532Z,1000.3
2018-03-14T01:57:04.266Z,1000.3
2018-03-14T01:58:06.692Z,1000.3
2018-03-14T01:59:09.738Z,1000.3
2018-03-14T02:00:12.466Z,1000.3
2018-03-14T02:01:14.878Z,1000.3
2018-03-14T02:02:17.322Z,1000.4
2018-03-14T02:03:19.746Z,1000.4
2018-03-14T02:04:22.175Z,1000.4
2018-03-14T02:05:24.609Z,1000.4
2018-03-14T02:06:27.028Z,1000.4
2018-03-14T02:07:29.450Z,1000.4
2018-03-14T02:08:31.877Z,1000.4
2018-03-14T02:09:34.298Z,1000.4
2018-03-14T02:10:36.729Z,1000.4
2018-03-14T02:11:39.510Z,1000.4
2018-03-14T02:12:42.264Z,1000.4
2018-03-14T02:13:44.681Z,1000.4
2018-03-14T02:14:47.746Z,1000.4
2018-03-14T02:15:50.474Z,1000.4
2018-03-14T02:16:52.914Z,1000.4
2018-03-14T02:17:55.344Z,1000.4
2018-03-14T02:18:57.779Z,1000.5
2018-03-14T02:20:00.202Z,1000.4
2018-03-14T02:21:02.642Z,1000.5
2018-03-14T02:22:05.064Z,1000.5
2018-03-14T02:23:07.485Z,1000.5
2018-03-14T02:24:10.223Z,1000.5
2018-03-14T02:25:12.958Z,1000.5
2018-03-14T02:26:15.377Z,1000.5
2018-03-14T02:27:17.808Z,1000.5
2018-03-14T02:28:20.232Z,1000.5
2018-03-14T02:29:23.900Z,1000.6
2018-03-14T02:30:26.334Z,1000.6
2018-03-14T02:31:28.762Z,1000.6
2018-03-14T02:32:31.483Z,1000.6
2018-03-14T02:33:33.917Z,1000.6
2018-03-14T02:34:36.341Z,1000.6
2018-03-14T02:35:39.967Z,1000.7
2018-03-14T02:36:42.387Z,1000.6
2018-03-14T02:37:44.809Z,1000.6
2018-03-14T02:38:47.232Z,1000.6
2018-03-14T02:39:49.660Z,1000.6
2018-03-14T02:40:52.085Z,1000.7
2018-03-14T02:41:54.513Z,1000.7
2018-03-14T02:42:56.944Z,1000.7
2018-03-14T02:43:59.379Z,1000.7
2018-03-14T02:45:01.787Z,1000.7
2018-03-14T02:46:04.807Z,1000.7
2018-03-14T02:47:07.228Z,1000.7
2018-03-14T02:48:09.653Z,1000.7
2018-03-14T02:49:12.085Z,1000.8
2018-03-14T02:50:14.506Z,1000.8
2018-03-14T02:51:16.931Z,1000.8
2018-03-14T02:52:19.371Z,1000.8
2018-03-14T02:53:21.794Z,1000.8
2018-03-14T02:54:24.216Z,1000.9
2018-03-14T02:55:26.641Z,1000.9
2018-03-14T02:56:29.066Z,1000.9
2018-03-14T02:57:31.496Z,1000.9
2018-03-14T02:58:33.928Z,1000.9
2018-03-14T02:59:36.353Z,1000.9
2018-03-14T03:00:38.779Z,1001
2018-03-14T03:01:41.504Z,1000.9
2018-03-14T03:02:43.926Z,1000.9
2018-03-14T03:03:46.359Z,1000.9
2018-03-14T03:04:48.789Z,1001
2018-03-14T03:05:51.211Z,1000.9
2018-03-14T03:06:53.937Z,1000.9
2018-03-14T03:07:56.365Z,1000.9
2018-03-14T03:08:58.782Z,1001
2018-03-14T03:10:01.203Z,1001
2018-03-14T03:11:03.646Z,1001
2018-03-14T03:12:06.073Z,1001
2018-03-14T03:13:08.804Z,1001
2018-03-14T03:14:11.225Z,1001
2018-03-14T03:15:13.660Z,1001
2018-03-14T03:16:16.095Z,1001
2018-03-14T03:17:18.523Z,1001
2018-03-14T03:18:21.240Z,1001
2018-03-14T03:19:23.664Z,1001
2018-03-14T03:20:26.099Z,1001
2018-03-14T03:21:28.527Z,1001
2018-03-14T03:22:30.955Z,1001
2018-03-14T03:23:33.386Z,1001
2018-03-14T03:24:35.813Z,1001.1
2018-03-14T03:25:38.251Z,1001.1
2018-03-14T03:26:40.678Z,1001.1
2018-03-14T03:27:43.110Z,1001.1
2018-03-14T03:28:45.541Z,1001.2
2018-03-14T03:29:47.962Z,1001.2
2018-03-14T03:30:50.674Z,1001.2
2018-03-14T03:31:53.100Z,1001.2
2018-03-14T03:32:55.528Z,1001.2
2018-03-14T03:33:58.237Z,1001.3
2018-03-14T03:35:00.673Z,1001.3
2018-03-14T03:36:03.098Z,1001.3
2018-03-14T03:37:05.814Z,1001.3
2018-03-14T03:38:08.251Z,1001.3
2018-03-14T03:39:10.678Z,1001.3
2018-03-14T03:40:13.109Z,1001.3
2018-03-14T03:41:15.540Z,1001.4
2018-03-14T03:42:17.960Z,1001.4
2018-03-14T03:43:20.388Z,1001.3
2018-03-14T03:44:22.829Z,1001.4
2018-03-14T03:45:25.242Z,1001.4
2018-03-14T03:46:27.671Z,1001.4
2018-03-14T03:47:30.100Z,1001.4
2018-03-14T03:48:32.520Z,1001.4
2018-03-14T03:49:34.951Z,1001.5
2018-03-14T03:50:37.384Z,1001.4
2018-03-14T03:51:39.794Z,1001.5
2018-03-14T03:52:42.236Z,1001.5
2018-03-14T03:53:44.663Z,1001.5
2018-03-14T03:54:47.376Z,1001.5
2018-03-14T03:55:49.802Z,1001.5
2018-03-14T03:56:52.233Z,1001.5
2018-03-14T03:57:54.663Z,1001.5
2018-03-14T03:58:57.074Z,1001.5
2018-03-14T04:00:00.081Z,1001.5
2018-03-14T04:01:02.511Z,1001.5
2018-03-14T04:02:05.226Z,1001.5
2018-03-14T04:03:07.653Z,1001.5
2018-03-14T04:04:10.083Z,1001.5
2018-03-14T04:05:12.506Z,1001.5
2018-03-14T04:06:14.942Z,1001.5
2018-03-14T04:07:17.370Z,1001.5
2018-03-14T04:08:19.805Z,1001.5
2018-03-14T04:09:22.519Z,1001.5
2018-03-14T04:10:25.257Z,1001.5
2018-03-14T04:11:27.976Z,1001.5
2018-03-14T04:12:30.405Z,1001.5
2018-03-14T04:13:32.829Z,1001.5
2018-03-14T04:14:35.307Z,1001.5
2018-03-14T04:15:37.676Z,1001.6
2018-03-14T04:16:40.094Z,1001.5
2018-03-14T04:17:42.522Z,1001.6
2018-03-14T04:18:44.950Z,1001.6
2018-03-14T04:19:47.380Z,1001.6
2018-03-14T04:20:49.805Z,1001.6
2018-03-14T04:21:52.237Z,1001.6
2018-03-14T04:22:54.655Z,1001.7
2018-03-14T04:23:57.134Z,1001.6
2018-03-14T04:24:59.513Z,1001.7
2018-03-14T04:26:02.232Z,1001.7
2018-03-14T04:27:04.663Z,1001.7
2018-03-14T04:28:07.374Z,1001.7
2018-03-14T04:29:09.795Z,1001.7
2018-03-14T04:30:12.520Z,1001.7
2018-03-14T04:31:14.951Z,1001.8
2018-03-14T04:32:17.671Z,1001.8
2018-03-14T04:33:20.112Z,1001.8
2018-03-14T04:34:22.831Z,1001.8
2018-03-14T04:35:25.260Z,1001.8
2018-03-14T04:36:27.973Z,1001.9
2018-03-14T04:37:30.396Z,1001.9
2018-03-14T04:38:32.829Z,1001.9
2018-03-14T04:39:35.259Z,1001.9
2018-03-14T04:40:37.688Z,1001.9
2018-03-14T04:41:40.105Z,1001.9
2018-03-14T04:42:42.534Z,1002
2018-03-14T04:43:44.960Z,1001.9
2018-03-14T04:44:47.693Z,1002
2018-03-14T04:45:50.115Z,1002
2018-03-14T04:46:52.542Z,1002
2018-03-14T04:47:54.970Z,1001.9
2018-03-14T04:48:57.412Z,1002
2018-03-14T04:49:59.884Z,1002
2018-03-14T04:51:02.266Z,1002
2018-03-14T04:52:04.986Z,1002
2018-03-14T04:53:07.410Z,1002
2018-03-14T04:54:09.834Z,1002
2018-03-14T04:55:12.261Z,1002
2018-03-14T04:56:14.689Z,1002
2018-03-14T04:57:17.126Z,1002
2018-03-14T04:58:19.542Z,1002
2018-03-14T04:59:22.264Z,1002
2018-03-14T05:00:24.693Z,1002
2018-03-14T05:01:27.126Z,1002.1
2018-03-14T05:02:29.562Z,1002
2018-03-14T05:03:32.556Z,1002.1
2018-03-14T05:04:34.976Z,1002.1
2018-03-14T05:05:37.706Z,1002.1
2018-03-14T05:06:40.125Z,1002.1
2018-03-14T05:07:42.568Z,1002.1
2018-03-14T05:08:44.987Z,1002.1
2018-03-14T05:09:47.703Z,1002.1
2018-03-14T05:10:50.142Z,1002.2
2018-03-14T05:11:52.557Z,1002.2
2018-03-14T05:12:55.138Z,1002.2
2018-03-14T05:13:57.886Z,1002.2
2018-03-14T05:15:00.301Z,1002.2
2018-03-14T05:16:02.730Z,1002.2
2018-03-14T05:17:05.168Z,1002.2
2018-03-14T05:18:07.591Z,1002.3
2018-03-14T05:19:10.314Z,1002.3
2018-03-14T05:20:12.724Z,1002.3
2018-03-14T05:21:15.433Z,1002.3
2018-03-14T05:22:17.854Z,1002.3
2018-03-14T05:23:20.277Z,1002.3
2018-03-14T05:24:22.721Z,1002.3
2018-03-14T05:25:25.153Z,1002.4
2018-03-14T05:26:27.589Z,1002.3
2018-03-14T05:27:30.305Z,1002.4
2018-03-14T05:28:32.746Z,1002.4
2018-03-14T05:29:35.476Z,1002.4
2018-03-14T05:30:38.194Z,1002.4
2018-03-14T05:31:40.618Z,1002.4
2018-03-14T05:32:43.327Z,1002.4
2018-03-14T05:33:46.052Z,1002.4
2018-03-14T05:34:48.476Z,1002.4
2018-03-14T05:35:51.189Z,1002.4
2018-03-14T05:36:53.612Z,1002.4
2018-03-14T05:37:56.041Z,1002.5
2018-03-14T05:38:58.474Z,1002.5
2018-03-14T05:40:00.902Z,1002.5
2018-03-14T05:41:03.323Z,1002.5
2018-03-14T05:42:05.754Z,1002.5
2018-03-14T05:43:08.185Z,1002.5
2018-03-14T05:44:10.616Z,1002.5
2018-03-14T05:45:13.048Z,1002.5
2018-03-14T05:46:15.461Z,1002.5
2018-03-14T05:47:17.886Z,1002.6
2018-03-14T05:48:20.328Z,1002.6
2018-03-14T05:49:22.750Z,1002.6
2018-03-14T05:50:25.182Z,1002.5
2018-03-14T05:51:27.609Z,1002.6
2018-03-14T05:52:30.038Z,1002.6
2018-03-14T05:53:32.464Z,1002.5
2018-03-14T05:54:34.889Z,1002.6
2018-03-14T05:55:37.612Z,1002.6
2018-03-14T05:56:40.051Z,1002.6
2018-03-14T05:57:42.465Z,1002.7
2018-03-14T05:58:44.899Z,1002.7
2018-03-14T05:59:47.324Z,1002.7
2018-03-14T06:00:49.753Z,1002.7
2018-03-14T06:01:52.175Z,1002.7
2018-03-14T06:02:54.603Z,1002.7
2018-03-14T06:03:57.024Z,1002.7
2018-03-14T06:04:59.462Z,1002.7
2018-03-14T06:06:01.887Z,1002.8
2018-03-14T06:07:04.314Z,1002.8
2018-03-14T06:08:06.735Z,1002.8
2018-03-14T06:09:09.158Z,1002.8
2018-03-14T06:10:11.595Z,1002.8
2018-03-14T06:11:14.595Z,1002.8
2018-03-14T06:12:17.014Z,1002.9
2018-03-14T06:13:19.448Z,1002.9
2018-03-14T06:14:21.876Z,1002.9
2018-03-14T06:15:24.309Z,1002.9
2018-03-14T06:16:26.791Z,1003
2018-03-14T06:17:29.160Z,1003
2018-03-14T06:18:31.584Z,1003
2018-03-14T06:19:34.332Z,1003
2018-03-14T06:20:36.764Z,1003
2018-03-14T06:21:39.467Z,1003
2018-03-14T06:22:41.908Z,1003
2018-03-14T06:23:44.338Z,1003.1
2018-03-14T06:24:46.767Z,1003
2018-03-14T06:25:49.486Z,1003
2018-03-14T06:26:51.910Z,1003
2018-03-14T06:27:54.334Z,1003
2018-03-14T06:28:56.764Z,1003
2018-03-14T06:29:59.185Z,1003
2018-03-14T06:31:01.607Z,1003.1
2018-03-14T06:32:04.037Z,1003
2018-03-14T06:33:06.469Z,1003
2018-03-14T06:34:08.904Z,1003.1
2018-03-14T06:35:11.633Z,1003.1
2018-03-14T06:36:14.038Z,1003.1
2018-03-14T06:37:16.471Z,1003.1
2018-03-14T06:38:18.895Z,1003.2
2018-03-14T06:39:21.330Z,1003.1
2018-03-14T06:40:23.757Z,1003.2
2018-03-14T06:41:26.473Z,1003.1
2018-03-14T06:42:28.910Z,1003.2
2018-03-14T06:43:31.342Z,1003.2
2018-03-14T06:44:33.763Z,1003.3
2018-03-14T06:45:36.187Z,1003.2
2018-03-14T06:46:38.889Z,1003.3
2018-03-14T06:47:41.315Z,1003.3
2018-03-14T06:48:43.740Z,1003.2
2018-03-14T06:49:46.177Z,1003.3
2018-03-14T06:50:48.605Z,1003.3
2018-03-14T06:51:51.038Z,1003.3
2018-03-14T06:52:53.466Z,1003.3
2018-03-14T06:53:55.886Z,1003.3
2018-03-14T06:54:58.333Z,1003.3
2018-03-14T06:56:00.764Z,1003.4
2018-03-14T06:57:03.179Z,1003.4
2018-03-14T06:58:05.617Z,1003.5
2018-03-14T06:59:08.317Z,1003.5
2018-03-14T07:00:10.747Z,1003.5
2018-03-14T07:01:13.187Z,1003.4
2018-03-14T07:02:15.610Z,1003.4
2018-03-14T07:03:18.030Z,1003.5
2018-03-14T07:04:20.750Z,1003.5
2018-03-14T07:05:23.175Z,1003.5
2018-03-14T07:06:25.612Z,1003.5
2018-03-14T07:07:28.039Z,1003.5
2018-03-14T07:08:30.460Z,1003.5
2018-03-14T07:09:33.181Z,1003.5
2018-03-14T07:10:35.644Z,1003.5
2018-03-14T07:11:38.063Z,1003.6
2018-03-14T07:12:40.495Z,1003.6
2018-03-14T07:13:42.923Z,1003.6
2018-03-14T07:14:45.353Z,1003.6
2018-03-14T07:15:48.070Z,1003.6
2018-03-14T07:16:50.493Z,1003.6
2018-03-14T07:17:52.917Z,1003.7
2018-03-14T07:18:55.359Z,1003.7
2018-03-14T07:19:57.779Z,1003.7
2018-03-14T07:21:00.505Z,1003.7
2018-03-14T07:22:02.932Z,1003.7
2018-03-14T07:23:05.357Z,1003.7
2018-03-14T07:24:08.084Z,1003.7
2018-03-14T07:25:10.507Z,1003.6
2018-03-14T07:26:12.931Z,1003.7
2018-03-14T07:27:15.369Z,1003.7
2018-03-14T07:28:17.782Z,1003.6
2018-03-14T07:29:20.209Z,1003.7
2018-03-14T07:30:22.648Z,1003.6
2018-03-14T07:31:25.071Z,1003.7
2018-03-14T07:32:27.787Z,1003.7
2018-03-14T07:33:30.214Z,1003.7
2018-03-14T07:34:32.646Z,1003.7
2018-03-14T07:35:35.396Z,1003.7
2018-03-14T07:36:37.821Z,1003.8
2018-03-14T07:37:40.252Z,1003.8
2018-03-14T07:38:42.677Z,1003.8
2018-03-14T07:39:45.101Z,1003.8
2018-03-14T07:40:47.809Z,1003.8
2018-03-14T07:41:50.244Z,1003.9
2018-03-14T07:42:52.664Z,1003.9
2018-03-14T07:43:55.085Z,1003.9
2018-03-14T07:44:57.522Z,1003.9
2018-03-14T07:45:59.956Z,1003.9
2018-03-14T07:47:02.405Z,1003.9
2018-03-14T07:48:04.841Z,1003.9
2018-03-14T07:49:07.276Z,1003.9
2018-03-14T07:50:09.985Z,1003.9
2018-03-14T07:51:12.404Z,1003.9
2018-03-14T07:52:15.132Z,1003.9
2018-03-14T07:53:17.600Z,1004
2018-03-14T07:54:19.978Z,1003.9
2018-03-14T07:55:22.414Z,1003.9
2018-03-14T07:56:24.847Z,1003.9
2018-03-14T07:57:27.277Z,1003.9
2018-03-14T07:58:29.712Z,1004
2018-03-14T07:59:32.143Z,1004
2018-03-14T08:00:34.577Z,1004
2018-03-14T08:01:37.019Z,1004
2018-03-14T08:02:39.442Z,1004
2018-03-14T08:03:41.877Z,1004
2018-03-14T08:04:44.585Z,1004
2018-03-14T08:05:47.045Z,1004
2018-03-14T08:06:49.441Z,1004
2018-03-14T08:07:51.873Z,1004.1
2018-03-14T08:08:54.583Z,1004.1
2018-03-14T08:09:57.007Z,1004
2018-03-14T08:10:59.441Z,1004
2018-03-14T08:12:01.866Z,1004
2018-03-14T08:13:04.344Z,1004
2018-03-14T08:14:06.773Z,1004
2018-03-14T08:15:09.490Z,1004
2018-03-14T08:16:11.921Z,1004
2018-03-14T08:17:14.344Z,1004
2018-03-14T08:18:16.779Z,1004
2018-03-14T08:19:19.205Z,1004
2018-03-14T08:20:21.666Z,1004
2018-03-14T08:21:24.069Z,1004
2018-03-14T08:22:26.483Z,1004
2018-03-14T08:23:29.231Z,1004.1
2018-03-14T08:24:31.667Z,1004.1
2018-03-14T08:25:34.089Z,1004.1
2018-03-14T08:26:36.533Z,1004.1
2018-03-14T08:27:38.960Z,1004.1
2018-03-14T08:28:41.977Z,1004
2018-03-14T08:29:44.412Z,1004.1
2018-03-14T08:30:46.835Z,1004.1
2018-03-14T08:31:49.264Z,1004.2
2018-03-14T08:32:51.701Z,1004.1
2018-03-14T08:33:54.409Z,1004.1
2018-03-14T08:34:56.843Z,1004.2
2018-03-14T08:35:59.555Z,1004.2
2018-03-14T08:37:01.992Z,1004.2
2018-03-14T08:38:04.421Z,1004.1
2018-03-14T08:39:06.852Z,1004.2
2018-03-14T08:40:09.273Z,1004.2
2018-03-14T08:41:11.996Z,1004.1
2018-03-14T08:42:14.431Z,1004.2
2018-03-14T08:43:17.168Z,1004.2
2018-03-14T08:44:19.601Z,1004.2
2018-03-14T08:45:22.032Z,1004.2
2018-03-14T08:46:24.461Z,1004.2
2018-03-14T08:47:27.188Z,1004.2
2018-03-14T08:48:29.613Z,1004.2
2018-03-14T08:49:32.038Z,1004.2
2018-03-14T08:50:34.473Z,1004.2
2018-03-14T08:51:36.895Z,1004.2
2018-03-14T08:52:39.334Z,1004.2
2018-03-14T08:53:41.759Z,1004.1
2018-03-14T08:54:44.193Z,1004.2
2018-03-14T08:55:46.651Z,1004.2
2018-03-14T08:56:49.045Z,1004.2
2018-03-14T08:57:51.473Z,1004.3
2018-03-14T08:58:53.895Z,1004.2
2018-03-14T08:59:56.316Z,1004.2
2018-03-14T09:00:58.756Z,1004.2
2018-03-14T09:02:01.196Z,1004.2
2018-03-14T09:03:03.624Z,1004.2
2018-03-14T09:04:06.055Z,1004.2
2018-03-14T09:05:08.485Z,1004.2
2018-03-14T09:06:10.916Z,1004.2
2018-03-14T09:07:13.919Z,1004.2
2018-03-14T09:08:16.340Z,1004.2
2018-03-14T09:09:18.777Z,1004.2
2018-03-14T09:10:21.493Z,1004.2
2018-03-14T09:11:24.200Z,1004.2
2018-03-14T09:12:26.923Z,1004.2
2018-03-14T09:13:29.344Z,1004.3
2018-03-14T09:14:31.768Z,1004.2
2018-03-14T09:15:34.500Z,1004.2
2018-03-14T09:16:36.926Z,1004.3
2018-03-14T09:17:39.353Z,1004.3
2018-03-14T09:18:41.778Z,1004.3
2018-03-14T09:19:44.217Z,1004.3
2018-03-14T09:20:46.965Z,1004.3
2018-03-14T09:21:49.396Z,1004.3
2018-03-14T09:22:51.827Z,1004.3
2018-03-14T09:23:54.266Z,1004.3
2018-03-14T09:24:56.697Z,1004.3
2018-03-14T09:25:59.124Z,1004.3
2018-03-14T09:27:01.548Z,1004.4
2018-03-14T09:28:03.976Z,1004.4
2018-03-14T09:29:06.400Z,1004.4
2018-03-14T09:30:08.832Z,1004.4
2018-03-14T09:31:11.267Z,1004.4
2018-03-14T09:32:13.982Z,1004.4
2018-03-14T09:33:16.490Z,1004.4
2018-03-14T09:34:18.842Z,1004.5
2018-03-14T09:35:21.560Z,1004.4
2018-03-14T09:36:24.287Z,1004.4
2018-03-14T09:37:26.721Z,1004.4
2018-03-14T09:38:29.160Z,1004.4
2018-03-14T09:39:31.904Z,1004.5
2018-03-14T09:40:34.325Z,1004.4
2018-03-14T09:41:36.772Z,1004.4
2018-03-14T09:42:39.204Z,1004.5
2018-03-14T09:43:41.628Z,1004.4
2018-03-14T09:44:44.062Z,1004.5
2018-03-14T09:45:46.488Z,1004.4
2018-03-14T09:46:49.209Z,1004.4
2018-03-14T09:47:51.626Z,1004.5
2018-03-14T09:48:54.076Z,1004.5
2018-03-14T09:49:56.507Z,1004.5
2018-03-14T09:50:58.940Z,1004.5
2018-03-14T09:52:01.378Z,1004.5
2018-03-14T09:53:03.807Z,1004.5
2018-03-14T09:54:06.257Z,1004.5
2018-03-14T09:55:08.989Z,1004.5
2018-03-14T09:56:11.409Z,1004.5
2018-03-14T09:57:13.837Z,1004.5
2018-03-14T09:58:16.567Z,1004.5
2018-03-14T09:59:19.000Z,1004.5
2018-03-14T10:00:21.434Z,1004.5
2018-03-14T10:01:23.868Z,1004.5
2018-03-14T10:02:26.589Z,1004.5
2018-03-14T10:03:29.027Z,1004.5
2018-03-14T10:04:31.770Z,1004.5
2018-03-14T10:05:34.197Z,1004.5
2018-03-14T10:06:36.627Z,1004.5
2018-03-14T10:07:39.375Z,1004.5
2018-03-14T10:08:42.088Z,1004.5
2018-03-14T10:09:44.514Z,1004.5
2018-03-14T10:10:47.235Z,1004.5
2018-03-14T10:11:49.663Z,1004.5
2018-03-14T10:12:52.096Z,1004.5
2018-03-14T10:13:54.535Z,1004.5
2018-03-14T10:14:57.240Z,1004.6
2018-03-14T10:15:59.683Z,1004.5
2018-03-14T10:17:02.116Z,1004.5
2018-03-14T10:18:04.837Z,1004.5
2018-03-14T10:19:07.625Z,1004.5
2018-03-14T10:20:10.014Z,1004.5
2018-03-14T10:21:12.455Z,1004.6
2018-03-14T10:22:15.160Z,1004.5
2018-03-14T10:23:17.599Z,1004.5
2018-03-14T10:24:20.610Z,1004.5
2018-03-14T10:25:23.051Z,1004.5
2018-03-14T10:26:25.491Z,1004.5
2018-03-14T10:27:28.226Z,1004.5
2018-03-14T10:28:30.658Z,1004.5
2018-03-14T10:29:33.102Z,1004.5
2018-03-14T10:30:35.546Z,1004.5
2018-03-14T10:31:37.975Z,1004.5
2018-03-14T10:32:40.710Z,1004.5
2018-03-14T10:33:43.148Z,1004.5
2018-03-14T10:34:45.585Z,1004.6
2018-03-14T10:35:48.021Z,1004.5
2018-03-14T10:36:50.505Z,1004.5
2018-03-14T10:37:52.886Z,1004.5
2018-03-14T10:38:55.625Z,1004.5
2018-03-14T10:39:58.055Z,1004.5
2018-03-14T10:41:00.781Z,1004.5
2018-03-14T10:42:03.543Z,1004.6
2018-03-14T10:43:06.271Z,1004.6
2018-03-14T10:44:08.718Z,1004.6
2018-03-14T10:45:11.158Z,1004.7
2018-03-14T10:46:13.597Z,1004.7
2018-03-14T10:47:16.035Z,1004.7
2018-03-14T10:48:18.494Z,1004.7
2018-03-14T10:49:21.216Z,1004.7
2018-03-14T10:50:23.655Z,1004.7
2018-03-14T10:51:26.091Z,1004.7
2018-03-14T10:52:28.532Z,1004.7
2018-03-14T10:53:31.254Z,1004.7
2018-03-14T10:54:33.996Z,1004.7
2018-03-14T10:55:36.423Z,1004.8
2018-03-14T10:56:39.166Z,1004.8
2018-03-14T10:57:41.604Z,1004.8
2018-03-14T10:58:44.042Z,1004.8
2018-03-14T10:59:46.482Z,1004.8
2018-03-14T11:00:49.208Z,1004.8
2018-03-14T11:01:51.940Z,1004.7
2018-03-14T11:02:54.688Z,1004.7
2018-03-14T11:03:57.405Z,1004.8
2018-03-14T11:04:59.843Z,1004.8
2018-03-14T11:06:02.272Z,1004.8
2018-03-14T11:07:04.716Z,1004.7
2018-03-14T11:08:07.432Z,1004.7
2018-03-14T11:09:09.868Z,1004.7
2018-03-14T11:10:12.305Z,1004.8
2018-03-14T11:11:15.039Z,1004.8
2018-03-14T11:12:17.481Z,1004.8
2018-03-14T11:13:19.930Z,1004.8
2018-03-14T11:14:22.348Z,1004.8
2018-03-14T11:15:24.789Z,1004.9
2018-03-14T11:16:27.224Z,1004.9
2018-03-14T11:17:29.668Z,1004.9
2018-03-14T11:18:32.107Z,1004.9
2018-03-14T11:19:34.534Z,1004.9
2018-03-14T11:20:36.964Z,1005
2018-03-14T11:21:39.412Z,1005
2018-03-14T11:22:41.836Z,1005
2018-03-14T11:23:44.562Z,1004.9
2018-03-14T11:24:46.997Z,1004.9
2018-03-14T11:25:49.716Z,1004.9
2018-03-14T11:26:52.158Z,1004.9
2018-03-14T11:27:55.180Z,1004.9
2018-03-14T11:28:57.611Z,1004.9
2018-03-14T11:30:00.045Z,1005
2018-03-14T11:31:02.491Z,1004.9
2018-03-14T11:32:04.978Z,1004.9
2018-03-14T11:33:07.412Z,1005
2018-03-14T11:34:10.136Z,1004.9
2018-03-14T11:35:13.137Z,1005
2018-03-14T11:36:15.577Z,1005
2018-03-14T11:37:18.012Z,1005
2018-03-14T11:38:20.446Z,1005
2018-03-14T11:39:22.894Z,1005
2018-03-14T11:40:25.326Z,1005
2018-03-14T11:41:27.753Z,1005
2018-03-14T11:42:30.189Z,1004.9
2018-03-14T11:43:32.618Z,1005
2018-03-14T11:44:35.100Z,1004.9
2018-03-14T11:45:37.852Z,1005
2018-03-14T11:46:40.287Z,1004.9
2018-03-14T11:47:42.719Z,1005
2018-03-14T11:48:45.157Z,1005
2018-03-14T11:49:47.588Z,1005
2018-03-14T11:50:50.023Z,1005
2018-03-14T11:51:52.453Z,1005
2018-03-14T11:52:54.900Z,1005
2018-03-14T11:53:57.331Z,1005
2018-03-14T11:55:00.064Z,1005
2018-03-14T11:56:02.492Z,1005
2018-03-14T11:57:04.933Z,1004.9
2018-03-14T11:58:07.366Z,1005
2018-03-14T11:59:09.802Z,1005
2018-03-14T12:00:12.239Z,1005
2018-03-14T12:01:14.671Z,1005
2018-03-14T12:02:17.093Z,1005
2018-03-14T12:03:19.526Z,1005
2018-03-14T12:04:22.294Z,1005
2018-03-14T12:05:25.254Z,1005
2018-03-14T12:06:27.691Z,1005
2018-03-14T12:07:30.126Z,1005
2018-03-14T12:08:32.572Z,1005
2018-03-14T12:09:35.008Z,1005
2018-03-14T12:10:37.438Z,1005
2018-03-14T12:11:39.862Z,1005
2018-03-14T12:12:42.298Z,1005
2018-03-14T12:13:45.017Z,1005.1
2018-03-14T12:14:47.448Z,1005
2018-03-14T12:15:49.870Z,1005.1
2018-03-14T12:16:52.303Z,1005.1
2018-03-14T12:17:54.735Z,1005.1
2018-03-14T12:18:57.175Z,1005
2018-03-14T12:19:59.608Z,1005.1
2018-03-14T12:21:02.331Z,1005.1
2018-03-14T12:22:04.762Z,1005
2018-03-14T12:23:07.193Z,1005.1
2018-03-14T12:24:09.627Z,1005.1
2018-03-14T12:25:12.060Z,1005
2018-03-14T12:26:14.504Z,1005
2018-03-14T12:27:16.934Z,1005
2018-03-14T12:28:19.354Z,1005
2018-03-14T12:29:21.792Z,1005
2018-03-14T12:30:24.217Z,1005.1
2018-03-14T12:31:26.656Z,1005
2018-03-14T12:32:29.082Z,1005
2018-03-14T12:33:31.545Z,1005
2018-03-14T12:34:33.959Z,1005
2018-03-14T12:35:36.693Z,1005
2018-03-14T12:36:39.135Z,1005.1
2018-03-14T12:37:41.553Z,1005.1
2018-03-14T12:38:44.276Z,1005.1
2018-03-14T12:39:46.994Z,1005.1
2018-03-14T12:40:49.428Z,1005.1
2018-03-14T12:41:51.852Z,1005.1
2018-03-14T12:42:54.273Z,1005.1
2018-03-14T12:43:56.705Z,1005.1
2018-03-14T12:44:59.149Z,1005.2
2018-03-14T12:46:01.581Z,1005.2
2018-03-14T12:47:04.300Z,1005.2
2018-03-14T12:48:06.736Z,1005.1
2018-03-14T12:49:09.171Z,1005.1
2018-03-14T12:50:11.595Z,1005
2018-03-14T12:51:14.027Z,1005
2018-03-14T12:52:16.784Z,1005.1
2018-03-14T12:53:19.489Z,1005
2018-03-14T12:54:22.218Z,1005
2018-03-14T12:55:24.925Z,1005
2018-03-14T12:56:27.362Z,1005
2018-03-14T12:57:29.798Z,1005
2018-03-14T12:58:32.518Z,1005.1
2018-03-14T12:59:34.931Z,1005
2018-03-14T13:00:37.373Z,1005.1
2018-03-14T13:01:39.800Z,1005
2018-03-14T13:02:42.237Z,1005.1
2018-03-14T13:03:44.681Z,1005
2018-03-14T13:04:47.108Z,1005.1
2018-03-14T13:05:49.548Z,1005
2018-03-14T13:06:51.980Z,1005
2018-03-14T13:07:54.413Z,1005.1
2018-03-14T13:08:57.126Z,1005.1
2018-03-14T13:09:59.550Z,1005
2018-03-14T13:11:02.277Z,1005.1
2018-03-14T13:12:04.710Z,1005.1